Terminal Aerodrome Forecast
Issued by NWS

Home | Current Version | Previous Version | Text Only | Print | Product List | Glossary On
Versions: 1 2 3 4 5 6 7 8 9 10 11 12
000
FTUS44 KTSA 292300
TAFXNA
TAF
KXNA 292320Z 3000/3024 32007KT P6SM BKN120
     FM300900 00000KT P6SM BKN250
     FM301200 VRB03KT P6SM BKN110 PROB30 3012/3018 4SM -RA BKN050
     FM302000 15006KT 4SM -RA BR BKN025=

USA.gov is the U.S. government's official web portal to all federal, state and local government web resources and services.